sensor_id;sensor_type;location;lat;lon;timestamp;P1;durP1;ratioP1;P2;durP2;ratioP2
50946;SDS011;36955;47.416;7.716;2022-09-13T00:00:18;2.13;;;1.00;;
50946;SDS011;36955;47.416;7.716;2022-09-13T00:02:45;3.85;;;1.17;;
50946;SDS011;36955;47.416;7.716;2022-09-13T00:05:11;2.45;;;1.10;;
50946;SDS011;36955;47.416;7.716;2022-09-13T00:07:37;1.38;;;1.00;;
50946;SDS011;36955;47.416;7.716;2022-09-13T00:10:03;1.92;;;1.10;;
50946;SDS011;36955;47.416;7.716;2022-09-13T00:12:29;2.35;;;1.20;;
50946;SDS011;36955;47.416;7.716;2022-09-13T00:14:55;3.78;;;1.27;;
50946;SDS011;36955;47.416;7.716;2022-09-13T00:17:21;3.10;;;1.08;;
50946;SDS011;36955;47.416;7.716;2022-09-13T00:19:47;2.20;;;0.95;;
50946;SDS011;36955;47.416;7.716;2022-09-13T00:22:13;1.15;;;1.00;;
50946;SDS011;36955;47.416;7.716;2022-09-13T00:24:40;1.00;;;0.90;;
50946;SDS011;36955;47.416;7.716;2022-09-13T00:27:06;1.30;;;1.10;;
50946;SDS011;36955;47.416;7.716;2022-09-13T00:29:32;2.85;;;1.15;;
50946;SDS011;36955;47.416;7.716;2022-09-13T00:31:58;2.65;;;1.00;;
50946;SDS011;36955;47.416;7.716;2022-09-13T00:34:24;1.30;;;1.00;;
50946;SDS011;36955;47.416;7.716;2022-09-13T00:36:50;3.85;;;1.00;;
50946;SDS011;36955;47.416;7.716;2022-09-13T00:39:16;1.95;;;1.08;;
50946;SDS011;36955;47.416;7.716;2022-09-13T00:41:42;3.08;;;1.27;;
50946;SDS011;36955;47.416;7.716;2022-09-13T00:47:20;1.33;;;1.10;;
50946;SDS011;36955;47.416;7.716;2022-09-13T00:53:04;2.75;;;0.95;;
50946;SDS011;36955;47.416;7.716;2022-09-13T00:56:06;1.02;;;0.90;;
50946;SDS011;36955;47.416;7.716;2022-09-13T00:58:38;0.85;;;0.85;;
50946;SDS011;36955;47.416;7.716;2022-09-13T01:01:14;1.08;;;0.98;;
50946;SDS011;36955;47.416;7.716;2022-09-13T01:03:41;2.28;;;1.20;;
50946;SDS011;36955;47.416;7.716;2022-09-13T01:06:10;3.05;;;1.15;;
50946;SDS011;36955;47.416;7.716;2022-09-13T01:08:40;1.42;;;1.33;;
50946;SDS011;36955;47.416;7.716;2022-09-13T01:11:10;1.50;;;1.10;;
50946;SDS011;36955;47.416;7.716;2022-09-13T01:13:43;1.65;;;1.00;;
50946;SDS011;36955;47.416;7.716;2022-09-13T01:16:11;1.50;;;1.00;;
50946;SDS011;36955;47.416;7.716;2022-09-13T01:18:37;1.23;;;0.80;;
50946;SDS011;36955;47.416;7.716;2022-09-13T01:32:33;2.90;;;0.80;;
50946;SDS011;36955;47.416;7.716;2022-09-13T01:43:34;1.63;;;0.73;;
50946;SDS011;36955;47.416;7.716;2022-09-13T01:46:17;2.47;;;0.80;;
50946;SDS011;36955;47.416;7.716;2022-09-13T02:02:20;0.93;;;0.85;;
50946;SDS011;36955;47.416;7.716;2022-09-13T02:04:51;2.08;;;0.80;;
50946;SDS011;36955;47.416;7.716;2022-09-13T02:07:23;1.77;;;0.90;;
50946;SDS011;36955;47.416;7.716;2022-09-13T02:09:57;1.20;;;0.88;;
50946;SDS011;36955;47.416;7.716;2022-09-13T02:12:28;1.63;;;0.93;;
50946;SDS011;36955;47.416;7.716;2022-09-13T02:18:06;2.78;;;0.63;;
50946;SDS011;36955;47.416;7.716;2022-09-13T02:20:39;1.45;;;0.95;;
50946;SDS011;36955;47.416;7.716;2022-09-13T02:23:12;1.15;;;1.05;;
50946;SDS011;36955;47.416;7.716;2022-09-13T02:25:41;1.13;;;0.77;;
50946;SDS011;36955;47.416;7.716;2022-09-13T02:28:11;2.03;;;0.70;;
50946;SDS011;36955;47.416;7.716;2022-09-13T02:30:42;0.70;;;0.60;;
50946;SDS011;36955;47.416;7.716;2022-09-13T02:33:17;1.77;;;0.82;;
50946;SDS011;36955;47.416;7.716;2022-09-13T02:35:59;0.85;;;0.85;;
50946;SDS011;36955;47.416;7.716;2022-09-13T02:38:32;1.90;;;0.90;;
50946;SDS011;36955;47.416;7.716;2022-09-13T02:41:07;1.73;;;0.90;;
50946;SDS011;36955;47.416;7.716;2022-09-13T02:43:43;0.70;;;0.60;;
50946;SDS011;36955;47.416;7.716;2022-09-13T02:55:37;0.65;;;0.65;;
50946;SDS011;36955;47.416;7.716;2022-09-13T02:58:19;0.52;;;0.52;;
50946;SDS011;36955;47.416;7.716;2022-09-13T03:01:07;2.75;;;0.60;;
50946;SDS011;36955;47.416;7.716;2022-09-13T03:03:33;1.73;;;0.70;;
50946;SDS011;36955;47.416;7.716;2022-09-13T03:05:59;0.88;;;0.70;;
50946;SDS011;36955;47.416;7.716;2022-09-13T03:08:25;1.55;;;0.70;;
50946;SDS011;36955;47.416;7.716;2022-09-13T03:13:31;1.30;;;0.77;;
50946;SDS011;36955;47.416;7.716;2022-09-13T03:16:15;0.70;;;0.60;;
50946;SDS011;36955;47.416;7.716;2022-09-13T03:21:59;1.17;;;0.70;;
50946;SDS011;36955;47.416;7.716;2022-09-13T03:24:49;1.13;;;0.63;;
50946;SDS011;36955;47.416;7.716;2022-09-13T03:30:08;0.82;;;0.70;;
50946;SDS011;36955;47.416;7.716;2022-09-13T03:32:46;1.35;;;0.68;;
50946;SDS011;36955;47.416;7.716;2022-09-13T03:35:28;4.28;;;0.80;;
50946;SDS011;36955;47.416;7.716;2022-09-13T03:38:14;2.73;;;0.63;;
50946;SDS011;36955;47.416;7.716;2022-09-13T03:40:47;0.90;;;0.70;;
50946;SDS011;36955;47.416;7.716;2022-09-13T03:43:23;0.50;;;0.50;;
50946;SDS011;36955;47.416;7.716;2022-09-13T03:45:53;0.60;;;0.60;;
50946;SDS011;36955;47.416;7.716;2022-09-13T03:48:22;1.30;;;0.52;;
50946;SDS011;36955;47.416;7.716;2022-09-13T03:50:49;0.57;;;0.57;;
50946;SDS011;36955;47.416;7.716;2022-09-13T03:53:25;4.13;;;0.60;;
50946;SDS011;36955;47.416;7.716;2022-09-13T03:55:54;2.15;;;0.68;;
50946;SDS011;36955;47.416;7.716;2022-09-13T03:58:21;1.58;;;0.73;;
50946;SDS011;36955;47.416;7.716;2022-09-13T04:00:47;1.08;;;0.65;;
50946;SDS011;36955;47.416;7.716;2022-09-13T04:03:13;1.17;;;0.70;;
50946;SDS011;36955;47.416;7.716;2022-09-13T04:05:40;0.98;;;0.60;;
50946;SDS011;36955;47.416;7.716;2022-09-13T04:08:06;1.40;;;0.50;;
50946;SDS011;36955;47.416;7.716;2022-09-13T04:10:32;2.25;;;0.52;;
50946;SDS011;36955;47.416;7.716;2022-09-13T04:13:00;1.10;;;0.70;;
50946;SDS011;36955;47.416;7.716;2022-09-13T04:15:26;2.97;;;0.68;;
50946;SDS011;36955;47.416;7.716;2022-09-13T04:17:53;2.00;;;0.85;;
50946;SDS011;36955;47.416;7.716;2022-09-13T04:20:19;2.90;;;0.57;;
50946;SDS011;36955;47.416;7.716;2022-09-13T04:22:55;0.80;;;0.60;;
50946;SDS011;36955;47.416;7.716;2022-09-13T04:25:21;1.45;;;0.47;;
50946;SDS011;36955;47.416;7.716;2022-09-13T04:27:52;1.05;;;0.50;;
50946;SDS011;36955;47.416;7.716;2022-09-13T04:30:22;1.02;;;0.60;;
50946;SDS011;36955;47.416;7.716;2022-09-13T04:32:48;0.82;;;0.60;;
50946;SDS011;36955;47.416;7.716;2022-09-13T04:35:14;3.53;;;2.25;;
50946;SDS011;36955;47.416;7.716;2022-09-13T04:37:40;1.50;;;0.70;;
50946;SDS011;36955;47.416;7.716;2022-09-13T04:40:06;0.80;;;0.80;;
50946;SDS011;36955;47.416;7.716;2022-09-13T04:42:33;2.65;;;0.50;;
50946;SDS011;36955;47.416;7.716;2022-09-13T04:44:59;1.67;;;0.50;;
50946;SDS011;36955;47.416;7.716;2022-09-13T04:47:25;0.73;;;0.65;;
50946;SDS011;36955;47.416;7.716;2022-09-13T04:49:52;2.72;;;0.60;;
50946;SDS011;36955;47.416;7.716;2022-09-13T04:52:18;2.67;;;0.60;;
50946;SDS011;36955;47.416;7.716;2022-09-13T04:54:44;0.73;;;0.63;;
50946;SDS011;36955;47.416;7.716;2022-09-13T04:57:10;1.55;;;0.75;;
50946;SDS011;36955;47.416;7.716;2022-09-13T04:59:36;0.60;;;0.60;;
50946;SDS011;36955;47.416;7.716;2022-09-13T05:02:02;2.00;;;1.02;;
50946;SDS011;36955;47.416;7.716;2022-09-13T05:04:28;0.98;;;0.80;;
50946;SDS011;36955;47.416;7.716;2022-09-13T05:06:54;1.25;;;0.63;;
50946;SDS011;36955;47.416;7.716;2022-09-13T05:09:20;3.72;;;1.45;;
50946;SDS011;36955;47.416;7.716;2022-09-13T05:11:46;1.42;;;0.68;;
50946;SDS011;36955;47.416;7.716;2022-09-13T05:14:13;1.13;;;0.80;;
50946;SDS011;36955;47.416;7.716;2022-09-13T05:16:39;1.08;;;0.70;;
50946;SDS011;36955;47.416;7.716;2022-09-13T05:19:05;1.00;;;0.70;;
50946;SDS011;36955;47.416;7.716;2022-09-13T05:21:32;4.30;;;0.90;;
50946;SDS011;36955;47.416;7.716;2022-09-13T05:23:58;1.15;;;1.02;;
50946;SDS011;36955;47.416;7.716;2022-09-13T05:26:25;1.80;;;0.80;;
50946;SDS011;36955;47.416;7.716;2022-09-13T05:28:53;3.25;;;0.70;;
50946;SDS011;36955;47.416;7.716;2022-09-13T05:31:23;1.75;;;0.90;;
50946;SDS011;36955;47.416;7.716;2022-09-13T05:33:52;2.30;;;1.10;;
50946;SDS011;36955;47.416;7.716;2022-09-13T05:36:23;3.17;;;1.00;;
50946;SDS011;36955;47.416;7.716;2022-09-13T05:38:50;2.20;;;0.98;;
50946;SDS011;36955;47.416;7.716;2022-09-13T05:41:17;1.90;;;0.80;;
50946;SDS011;36955;47.416;7.716;2022-09-13T05:43:44;1.60;;;0.93;;
50946;SDS011;36955;47.416;7.716;2022-09-13T05:46:11;2.05;;;1.20;;
50946;SDS011;36955;47.416;7.716;2022-09-13T05:48:38;3.40;;;2.28;;
50946;SDS011;36955;47.416;7.716;2022-09-13T05:51:09;1.42;;;1.00;;
50946;SDS011;36955;47.416;7.716;2022-09-13T05:53:40;0.88;;;0.82;;
50946;SDS011;36955;47.416;7.716;2022-09-13T05:56:08;1.25;;;0.93;;
50946;SDS011;36955;47.416;7.716;2022-09-13T05:58:40;1.38;;;0.93;;
50946;SDS011;36955;47.416;7.716;2022-09-13T06:01:08;2.08;;;1.00;;
50946;SDS011;36955;47.416;7.716;2022-09-13T06:03:35;3.10;;;0.90;;
50946;SDS011;36955;47.416;7.716;2022-09-13T06:06:02;1.65;;;1.00;;
50946;SDS011;36955;47.416;7.716;2022-09-13T06:08:31;1.40;;;0.93;;
50946;SDS011;36955;47.416;7.716;2022-09-13T06:13:24;1.38;;;1.00;;
50946;SDS011;36955;47.416;7.716;2022-09-13T06:15:51;2.15;;;0.90;;
50946;SDS011;36955;47.416;7.716;2022-09-13T06:18:18;1.85;;;1.10;;
50946;SDS011;36955;47.416;7.716;2022-09-13T06:20:45;0.95;;;0.80;;
50946;SDS011;36955;47.416;7.716;2022-09-13T06:23:12;1.00;;;1.00;;
50946;SDS011;36955;47.416;7.716;2022-09-13T06:25:39;1.67;;;1.10;;
50946;SDS011;36955;47.416;7.716;2022-09-13T06:28:05;0.85;;;0.80;;
50946;SDS011;36955;47.416;7.716;2022-09-13T06:30:32;2.45;;;1.00;;
50946;SDS011;36955;47.416;7.716;2022-09-13T06:32:58;1.40;;;0.77;;
50946;SDS011;36955;47.416;7.716;2022-09-13T06:35:24;1.55;;;0.80;;
50946;SDS011;36955;47.416;7.716;2022-09-13T06:37:50;1.48;;;0.85;;
50946;SDS011;36955;47.416;7.716;2022-09-13T06:40:20;2.38;;;0.85;;
50946;SDS011;36955;47.416;7.716;2022-09-13T06:42:46;2.05;;;1.10;;
50946;SDS011;36955;47.416;7.716;2022-09-13T06:45:12;1.20;;;0.80;;
50946;SDS011;36955;47.416;7.716;2022-09-13T06:47:38;3.05;;;0.90;;
50946;SDS011;36955;47.416;7.716;2022-09-13T06:50:04;1.25;;;0.82;;
50946;SDS011;36955;47.416;7.716;2022-09-13T06:52:30;1.80;;;0.80;;
50946;SDS011;36955;47.416;7.716;2022-09-13T06:54:56;1.33;;;0.80;;
50946;SDS011;36955;47.416;7.716;2022-09-13T06:57:23;1.52;;;0.90;;
50946;SDS011;36955;47.416;7.716;2022-09-13T06:59:49;3.15;;;1.00;;
50946;SDS011;36955;47.416;7.716;2022-09-13T07:02:15;1.20;;;0.90;;
50946;SDS011;36955;47.416;7.716;2022-09-13T07:04:41;0.70;;;0.70;;
50946;SDS011;36955;47.416;7.716;2022-09-13T07:07:07;0.82;;;0.73;;
50946;SDS011;36955;47.416;7.716;2022-09-13T07:09:33;2.25;;;0.88;;
50946;SDS011;36955;47.416;7.716;2022-09-13T07:11:59;1.88;;;0.93;;
50946;SDS011;36955;47.416;7.716;2022-09-13T07:14:26;1.70;;;1.00;;
50946;SDS011;36955;47.416;7.716;2022-09-13T07:16:53;0.80;;;0.75;;
50946;SDS011;36955;47.416;7.716;2022-09-13T07:19:29;2.58;;;1.00;;
50946;SDS011;36955;47.416;7.716;2022-09-13T07:21:55;0.88;;;0.88;;
50946;SDS011;36955;47.416;7.716;2022-09-13T07:24:22;1.13;;;0.90;;
50946;SDS011;36955;47.416;7.716;2022-09-13T07:26:49;2.75;;;0.80;;
50946;SDS011;36955;47.416;7.716;2022-09-13T07:29:16;1.58;;;0.80;;
50946;SDS011;36955;47.416;7.716;2022-09-13T07:31:45;3.03;;;0.95;;
50946;SDS011;36955;47.416;7.716;2022-09-13T07:34:15;5.53;;;1.10;;
50946;SDS011;36955;47.416;7.716;2022-09-13T07:36:42;1.75;;;0.82;;
50946;SDS011;36955;47.416;7.716;2022-09-13T07:39:08;0.98;;;0.85;;
50946;SDS011;36955;47.416;7.716;2022-09-13T07:41:34;3.65;;;0.90;;
50946;SDS011;36955;47.416;7.716;2022-09-13T07:44:01;1.70;;;0.70;;
50946;SDS011;36955;47.416;7.716;2022-09-13T07:46:28;3.15;;;0.82;;
50946;SDS011;36955;47.416;7.716;2022-09-13T07:48:56;3.08;;;1.00;;
50946;SDS011;36955;47.416;7.716;2022-09-13T07:51:24;2.08;;;1.00;;
50946;SDS011;36955;47.416;7.716;2022-09-13T07:53:53;1.00;;;0.95;;
50946;SDS011;36955;47.416;7.716;2022-09-13T07:56:24;1.83;;;0.98;;
50946;SDS011;36955;47.416;7.716;2022-09-13T07:58:51;1.33;;;0.80;;
50946;SDS011;36955;47.416;7.716;2022-09-13T08:01:19;2.00;;;0.85;;
50946;SDS011;36955;47.416;7.716;2022-09-13T08:03:52;3.60;;;1.10;;
50946;SDS011;36955;47.416;7.716;2022-09-13T08:06:20;1.50;;;1.00;;
50946;SDS011;36955;47.416;7.716;2022-09-13T08:08:47;3.80;;;1.08;;
50946;SDS011;36955;47.416;7.716;2022-09-13T08:11:15;3.72;;;1.00;;
50946;SDS011;36955;47.416;7.716;2022-09-13T08:13:43;1.67;;;1.10;;
50946;SDS011;36955;47.416;7.716;2022-09-13T08:16:10;2.70;;;1.00;;
50946;SDS011;36955;47.416;7.716;2022-09-13T08:18:36;2.78;;;0.90;;
50946;SDS011;36955;47.416;7.716;2022-09-13T08:21:02;2.33;;;1.15;;
50946;SDS011;36955;47.416;7.716;2022-09-13T08:23:28;1.35;;;0.80;;
50946;SDS011;36955;47.416;7.716;2022-09-13T08:25:59;2.15;;;0.98;;
50946;SDS011;36955;47.416;7.716;2022-09-13T08:28:25;2.75;;;1.00;;
50946;SDS011;36955;47.416;7.716;2022-09-13T08:30:51;0.98;;;0.80;;
50946;SDS011;36955;47.416;7.716;2022-09-13T08:33:18;1.23;;;1.10;;
50946;SDS011;36955;47.416;7.716;2022-09-13T08:35:50;3.22;;;1.20;;
50946;SDS011;36955;47.416;7.716;2022-09-13T08:40:53;1.77;;;1.10;;
50946;SDS011;36955;47.416;7.716;2022-09-13T08:43:38;2.15;;;1.08;;
50946;SDS011;36955;47.416;7.716;2022-09-13T08:46:28;2.45;;;1.13;;
50946;SDS011;36955;47.416;7.716;2022-09-13T08:49:03;2.70;;;1.20;;
50946;SDS011;36955;47.416;7.716;2022-09-13T08:54:12;3.33;;;1.15;;
50946;SDS011;36955;47.416;7.716;2022-09-13T08:56:43;1.58;;;0.90;;
50946;SDS011;36955;47.416;7.716;2022-09-13T08:59:52;4.55;;;1.27;;
50946;SDS011;36955;47.416;7.716;2022-09-13T09:04:55;1.30;;;1.13;;
50946;SDS011;36955;47.416;7.716;2022-09-13T09:07:33;4.60;;;1.35;;
50946;SDS011;36955;47.416;7.716;2022-09-13T09:10:30;1.75;;;1.00;;
50946;SDS011;36955;47.416;7.716;2022-09-13T09:15:40;3.00;;;1.10;;
50946;SDS011;36955;47.416;7.716;2022-09-13T09:18:10;2.20;;;1.40;;
50946;SDS011;36955;47.416;7.716;2022-09-13T09:20:46;2.35;;;1.20;;
50946;SDS011;36955;47.416;7.716;2022-09-13T09:23:19;2.00;;;1.35;;
50946;SDS011;36955;47.416;7.716;2022-09-13T09:25:46;1.55;;;1.10;;
50946;SDS011;36955;47.416;7.716;2022-09-13T09:28:16;3.00;;;1.08;;
50946;SDS011;36955;47.416;7.716;2022-09-13T09:30:56;3.47;;;1.42;;
50946;SDS011;36955;47.416;7.716;2022-09-13T09:38:41;3.63;;;1.55;;
50946;SDS011;36955;47.416;7.716;2022-09-13T09:41:12;1.25;;;1.10;;
50946;SDS011;36955;47.416;7.716;2022-09-13T09:44:00;2.05;;;1.10;;
50946;SDS011;36955;47.416;7.716;2022-09-13T09:46:49;4.50;;;1.63;;
50946;SDS011;36955;47.416;7.716;2022-09-13T09:49:31;2.55;;;1.77;;
50946;SDS011;36955;47.416;7.716;2022-09-13T09:52:02;1.83;;;1.50;;
50946;SDS011;36955;47.416;7.716;2022-09-13T09:54:30;1.65;;;1.10;;
50946;SDS011;36955;47.416;7.716;2022-09-13T09:56:57;3.65;;;1.30;;
50946;SDS011;36955;47.416;7.716;2022-09-13T09:59:24;3.50;;;1.10;;
50946;SDS011;36955;47.416;7.716;2022-09-13T10:01:52;2.17;;;1.30;;
50946;SDS011;36955;47.416;7.716;2022-09-13T10:04:20;3.33;;;1.33;;
50946;SDS011;36955;47.416;7.716;2022-09-13T10:06:46;2.03;;;1.33;;
50946;SDS011;36955;47.416;7.716;2022-09-13T10:09:20;2.22;;;1.30;;
50946;SDS011;36955;47.416;7.716;2022-09-13T10:11:54;1.75;;;1.35;;
50946;SDS011;36955;47.416;7.716;2022-09-13T10:14:25;2.65;;;1.50;;
50946;SDS011;36955;47.416;7.716;2022-09-13T10:17:12;6.18;;;1.55;;
50946;SDS011;36955;47.416;7.716;2022-09-13T10:22:37;2.50;;;1.20;;
50946;SDS011;36955;47.416;7.716;2022-09-13T10:25:24;1.45;;;1.20;;
50946;SDS011;36955;47.416;7.716;2022-09-13T10:27:55;1.90;;;1.10;;
50946;SDS011;36955;47.416;7.716;2022-09-13T10:33:03;2.85;;;1.13;;
50946;SDS011;36955;47.416;7.716;2022-09-13T10:35:31;2.10;;;1.30;;
50946;SDS011;36955;47.416;7.716;2022-09-13T10:37:58;2.60;;;1.30;;
50946;SDS011;36955;47.416;7.716;2022-09-13T10:40:28;1.92;;;1.20;;
50946;SDS011;36955;47.416;7.716;2022-09-13T10:42:57;6.43;;;1.40;;
50946;SDS011;36955;47.416;7.716;2022-09-13T10:45:25;5.63;;;1.25;;
50946;SDS011;36955;47.416;7.716;2022-09-13T10:47:53;2.45;;;1.10;;
50946;SDS011;36955;47.416;7.716;2022-09-13T10:50:28;1.55;;;1.45;;
50946;SDS011;36955;47.416;7.716;2022-09-13T10:52:55;1.77;;;1.10;;
50946;SDS011;36955;47.416;7.716;2022-09-13T10:55:24;2.00;;;1.35;;
50946;SDS011;36955;47.416;7.716;2022-09-13T11:00:37;3.97;;;1.40;;
50946;SDS011;36955;47.416;7.716;2022-09-13T11:20:45;2.85;;;1.50;;
50946;SDS011;36955;47.416;7.716;2022-09-13T11:23:21;3.22;;;1.42;;
50946;SDS011;36955;47.416;7.716;2022-09-13T11:26:13;2.80;;;1.30;;
50946;SDS011;36955;47.416;7.716;2022-09-13T11:31:55;2.10;;;1.40;;
50946;SDS011;36955;47.416;7.716;2022-09-13T11:37:36;1.92;;;1.20;;
50946;SDS011;36955;47.416;7.716;2022-09-13T11:46:06;2.00;;;1.30;;
50946;SDS011;36955;47.416;7.716;2022-09-13T11:48:58;3.67;;;1.35;;
50946;SDS011;36955;47.416;7.716;2022-09-13T11:56:38;2.83;;;1.10;;
50946;SDS011;36955;47.416;7.716;2022-09-13T12:02:23;1.75;;;1.20;;
50946;SDS011;36955;47.416;7.716;2022-09-13T12:05:04;2.40;;;1.10;;
50946;SDS011;36955;47.416;7.716;2022-09-13T12:07:39;3.80;;;1.15;;
50946;SDS011;36955;47.416;7.716;2022-09-13T12:10:22;3.63;;;1.52;;
50946;SDS011;36955;47.416;7.716;2022-09-13T12:12:56;4.10;;;1.55;;
50946;SDS011;36955;47.416;7.716;2022-09-13T12:20:37;2.63;;;1.20;;
50946;SDS011;36955;47.416;7.716;2022-09-13T12:23:53;3.20;;;1.23;;
50946;SDS011;36955;47.416;7.716;2022-09-13T12:26:21;3.60;;;1.42;;
50946;SDS011;36955;47.416;7.716;2022-09-13T12:28:55;2.80;;;1.23;;
50946;SDS011;36955;47.416;7.716;2022-09-13T12:31:26;1.63;;;0.85;;
50946;SDS011;36955;47.416;7.716;2022-09-13T12:33:54;1.17;;;1.00;;
50946;SDS011;36955;47.416;7.716;2022-09-13T12:41:51;1.63;;;1.25;;
50946;SDS011;36955;47.416;7.716;2022-09-13T12:45:10;5.18;;;1.13;;
50946;SDS011;36955;47.416;7.716;2022-09-13T12:58:20;1.73;;;0.90;;
50946;SDS011;36955;47.416;7.716;2022-09-13T13:03:56;1.83;;;0.90;;
50946;SDS011;36955;47.416;7.716;2022-09-13T13:12:08;2.00;;;0.90;;
50946;SDS011;36955;47.416;7.716;2022-09-13T13:14:53;3.25;;;0.85;;
50946;SDS011;36955;47.416;7.716;2022-09-13T13:17:39;2.25;;;0.90;;
50946;SDS011;36955;47.416;7.716;2022-09-13T13:31:08;2.05;;;1.00;;
50946;SDS011;36955;47.416;7.716;2022-09-13T13:33:45;4.93;;;1.02;;
50946;SDS011;36955;47.416;7.716;2022-09-13T13:41:58;1.20;;;1.00;;
50946;SDS011;36955;47.416;7.716;2022-09-13T14:05:15;1.55;;;1.10;;
50946;SDS011;36955;47.416;7.716;2022-09-13T14:11:06;1.65;;;0.93;;
50946;SDS011;36955;47.416;7.716;2022-09-13T14:13:50;1.17;;;1.00;;
50946;SDS011;36955;47.416;7.716;2022-09-13T14:24:37;3.58;;;0.90;;
50946;SDS011;36955;47.416;7.716;2022-09-13T14:27:04;3.40;;;1.10;;
50946;SDS011;36955;47.416;7.716;2022-09-13T14:29:31;2.08;;;1.00;;
50946;SDS011;36955;47.416;7.716;2022-09-13T14:32:10;6.32;;;1.48;;
50946;SDS011;36955;47.416;7.716;2022-09-13T14:34:49;2.50;;;1.13;;
50946;SDS011;36955;47.416;7.716;2022-09-13T14:37:27;4.50;;;1.20;;
50946;SDS011;36955;47.416;7.716;2022-09-13T14:39:59;2.70;;;1.02;;
50946;SDS011;36955;47.416;7.716;2022-09-13T14:42:39;2.35;;;1.20;;
50946;SDS011;36955;47.416;7.716;2022-09-13T14:45:11;3.80;;;1.15;;
50946;SDS011;36955;47.416;7.716;2022-09-13T14:47:43;2.25;;;1.30;;
50946;SDS011;36955;47.416;7.716;2022-09-13T14:50:14;1.92;;;1.10;;
50946;SDS011;36955;47.416;7.716;2022-09-13T14:55:13;1.52;;;1.10;;
50946;SDS011;36955;47.416;7.716;2022-09-13T14:57:51;4.60;;;1.20;;
50946;SDS011;36955;47.416;7.716;2022-09-13T15:00:21;4.60;;;1.30;;
50946;SDS011;36955;47.416;7.716;2022-09-13T15:02:49;5.75;;;1.10;;
50946;SDS011;36955;47.416;7.716;2022-09-13T15:05:16;3.53;;;1.23;;
50946;SDS011;36955;47.416;7.716;2022-09-13T15:07:44;1.80;;;1.05;;
50946;SDS011;36955;47.416;7.716;2022-09-13T15:12:36;4.32;;;1.30;;
50946;SDS011;36955;47.416;7.716;2022-09-13T15:18:02;4.40;;;1.30;;
50946;SDS011;36955;47.416;7.716;2022-09-13T15:23:49;1.88;;;1.05;;
50946;SDS011;36955;47.416;7.716;2022-09-13T15:26:19;1.05;;;1.00;;
50946;SDS011;36955;47.416;7.716;2022-09-13T15:28:54;2.03;;;1.10;;
50946;SDS011;36955;47.416;7.716;2022-09-13T15:31:28;1.48;;;1.10;;
50946;SDS011;36955;47.416;7.716;2022-09-13T15:36:44;5.30;;;1.23;;
50946;SDS011;36955;47.416;7.716;2022-09-13T15:41:54;1.65;;;1.20;;
50946;SDS011;36955;47.416;7.716;2022-09-13T15:44:24;2.92;;;0.98;;
50946;SDS011;36955;47.416;7.716;2022-09-13T15:46:54;1.70;;;1.10;;
50946;SDS011;36955;47.416;7.716;2022-09-13T15:49:24;1.95;;;1.10;;
50946;SDS011;36955;47.416;7.716;2022-09-13T15:51:55;2.15;;;1.00;;
50946;SDS011;36955;47.416;7.716;2022-09-13T15:54:23;3.47;;;1.13;;
50946;SDS011;36955;47.416;7.716;2022-09-13T15:57:04;3.78;;;1.10;;
50946;SDS011;36955;47.416;7.716;2022-09-13T15:59:32;2.15;;;1.23;;
50946;SDS011;36955;47.416;7.716;2022-09-13T16:01:58;2.45;;;1.00;;
50946;SDS011;36955;47.416;7.716;2022-09-13T16:04:25;1.65;;;1.02;;
50946;SDS011;36955;47.416;7.716;2022-09-13T16:06:51;0.88;;;0.88;;
50946;SDS011;36955;47.416;7.716;2022-09-13T16:09:21;2.70;;;1.00;;
50946;SDS011;36955;47.416;7.716;2022-09-13T16:11:50;0.80;;;0.80;;
50946;SDS011;36955;47.416;7.716;2022-09-13T16:14:16;1.27;;;0.88;;
50946;SDS011;36955;47.416;7.716;2022-09-13T16:16:43;0.98;;;0.88;;
50946;SDS011;36955;47.416;7.716;2022-09-13T16:19:14;2.25;;;0.90;;
50946;SDS011;36955;47.416;7.716;2022-09-13T16:21:41;3.47;;;0.77;;
50946;SDS011;36955;47.416;7.716;2022-09-13T16:24:08;1.05;;;0.73;;
50946;SDS011;36955;47.416;7.716;2022-09-13T16:26:34;1.25;;;0.70;;
50946;SDS011;36955;47.416;7.716;2022-09-13T16:29:00;2.17;;;0.77;;
50946;SDS011;36955;47.416;7.716;2022-09-13T16:31:26;1.30;;;0.63;;
50946;SDS011;36955;47.416;7.716;2022-09-13T16:33:52;1.02;;;0.80;;
50946;SDS011;36955;47.416;7.716;2022-09-13T16:36:18;5.50;;;0.70;;
50946;SDS011;36955;47.416;7.716;2022-09-13T16:38:44;0.75;;;0.70;;
50946;SDS011;36955;47.416;7.716;2022-09-13T16:41:10;0.57;;;0.57;;
50946;SDS011;36955;47.416;7.716;2022-09-13T16:43:36;0.95;;;0.70;;
50946;SDS011;36955;47.416;7.716;2022-09-13T16:46:06;1.52;;;0.80;;
50946;SDS011;36955;47.416;7.716;2022-09-13T16:48:33;2.97;;;0.70;;
50946;SDS011;36955;47.416;7.716;2022-09-13T16:51:04;2.90;;;0.80;;
50946;SDS011;36955;47.416;7.716;2022-09-13T16:53:35;1.77;;;0.75;;
50946;SDS011;36955;47.416;7.716;2022-09-13T16:56:07;3.97;;;0.80;;
50946;SDS011;36955;47.416;7.716;2022-09-13T16:58:35;1.90;;;0.73;;
50946;SDS011;36955;47.416;7.716;2022-09-13T17:01:08;1.55;;;0.80;;
50946;SDS011;36955;47.416;7.716;2022-09-13T17:03:36;0.98;;;0.88;;
50946;SDS011;36955;47.416;7.716;2022-09-13T17:06:04;5.43;;;0.80;;
50946;SDS011;36955;47.416;7.716;2022-09-13T17:08:33;1.70;;;0.88;;
50946;SDS011;36955;47.416;7.716;2022-09-13T17:11:04;2.40;;;0.88;;
50946;SDS011;36955;47.416;7.716;2022-09-13T17:13:36;1.58;;;0.77;;
50946;SDS011;36955;47.416;7.716;2022-09-13T17:16:04;2.08;;;0.80;;
50946;SDS011;36955;47.416;7.716;2022-09-13T17:18:32;3.80;;;1.10;;
50946;SDS011;36955;47.416;7.716;2022-09-13T17:20:58;1.55;;;0.90;;
50946;SDS011;36955;47.416;7.716;2022-09-13T17:23:25;4.00;;;1.20;;
50946;SDS011;36955;47.416;7.716;2022-09-13T17:25:51;2.70;;;1.02;;
50946;SDS011;36955;47.416;7.716;2022-09-13T17:28:17;2.97;;;1.00;;
50946;SDS011;36955;47.416;7.716;2022-09-13T17:30:45;2.05;;;1.10;;
50946;SDS011;36955;47.416;7.716;2022-09-13T17:33:11;1.15;;;0.90;;
50946;SDS011;36955;47.416;7.716;2022-09-13T17:35:38;2.35;;;1.00;;
50946;SDS011;36955;47.416;7.716;2022-09-13T17:38:04;2.20;;;1.00;;
50946;SDS011;36955;47.416;7.716;2022-09-13T17:40:30;3.10;;;1.42;;
50946;SDS011;36955;47.416;7.716;2022-09-13T17:42:57;4.18;;;1.17;;
50946;SDS011;36955;47.416;7.716;2022-09-13T17:45:23;2.38;;;1.25;;
50946;SDS011;36955;47.416;7.716;2022-09-13T17:47:53;1.63;;;1.10;;
50946;SDS011;36955;47.416;7.716;2022-09-13T17:50:20;1.80;;;1.08;;
50946;SDS011;36955;47.416;7.716;2022-09-13T17:52:46;3.00;;;1.25;;
50946;SDS011;36955;47.416;7.716;2022-09-13T17:55:12;2.63;;;1.08;;
50946;SDS011;36955;47.416;7.716;2022-09-13T17:57:38;1.60;;;1.33;;
50946;SDS011;36955;47.416;7.716;2022-09-13T18:00:04;6.15;;;1.50;;
50946;SDS011;36955;47.416;7.716;2022-09-13T18:02:32;6.30;;;1.10;;
50946;SDS011;36955;47.416;7.716;2022-09-13T18:04:58;2.90;;;1.20;;
50946;SDS011;36955;47.416;7.716;2022-09-13T18:07:24;2.08;;;1.27;;
50946;SDS011;36955;47.416;7.716;2022-09-13T18:09:50;3.70;;;1.20;;
50946;SDS011;36955;47.416;7.716;2022-09-13T18:12:16;2.92;;;1.25;;
50946;SDS011;36955;47.416;7.716;2022-09-13T18:14:42;1.80;;;1.23;;
50946;SDS011;36955;47.416;7.716;2022-09-13T18:17:08;2.07;;;1.30;;
50946;SDS011;36955;47.416;7.716;2022-09-13T18:19:34;3.45;;;1.55;;
50946;SDS011;36955;47.416;7.716;2022-09-13T18:22:00;1.30;;;1.20;;
50946;SDS011;36955;47.416;7.716;2022-09-13T18:24:26;4.32;;;1.63;;
50946;SDS011;36955;47.416;7.716;2022-09-13T18:26:52;5.18;;;1.42;;
50946;SDS011;36955;47.416;7.716;2022-09-13T18:29:18;4.10;;;1.67;;
50946;SDS011;36955;47.416;7.716;2022-09-13T18:31:44;3.97;;;1.55;;
50946;SDS011;36955;47.416;7.716;2022-09-13T18:34:11;3.95;;;1.27;;
50946;SDS011;36955;47.416;7.716;2022-09-13T18:36:39;3.45;;;1.45;;
50946;SDS011;36955;47.416;7.716;2022-09-13T18:39:06;5.25;;;1.40;;
50946;SDS011;36955;47.416;7.716;2022-09-13T18:41:37;2.80;;;1.88;;
50946;SDS011;36955;47.416;7.716;2022-09-13T18:44:04;1.98;;;1.50;;
50946;SDS011;36955;47.416;7.716;2022-09-13T18:46:31;3.15;;;1.67;;